sensor_id;sensor_type;location;lat;lon;timestamp;pressure;altitude;pressure_sealevel;temperature;humidity
61537;BME280;48695;53.480;-6.300;2024-03-07T00:02:21;101361.69;;;10.79;65.55
61537;BME280;48695;53.480;-6.300;2024-03-07T00:04:46;101353.84;;;10.80;65.26
61537;BME280;48695;53.480;-6.300;2024-03-07T00:07:12;101348.63;;;10.79;65.46
61537;BME280;48695;53.480;-6.300;2024-03-07T00:09:37;101354.72;;;10.78;65.33
61537;BME280;48695;53.480;-6.300;2024-03-07T00:12:04;101361.69;;;10.80;65.07
61537;BME280;48695;53.480;-6.300;2024-03-07T00:14:31;101364.28;;;10.80;65.59
61537;BME280;48695;53.480;-6.300;2024-03-07T00:16:57;101347.72;;;10.81;65.22
61537;BME280;48695;53.480;-6.300;2024-03-07T00:19:24;101340.00;;;10.72;65.57
61537;BME280;48695;53.480;-6.300;2024-03-07T00:21:54;101356.41;;;10.85;65.47
61537;BME280;48695;53.480;-6.300;2024-03-07T00:24:20;101359.94;;;10.81;65.08
61537;BME280;48695;53.480;-6.300;2024-03-07T00:26:46;101358.22;;;10.80;65.21
61537;BME280;48695;53.480;-6.300;2024-03-07T00:29:11;101347.81;;;10.74;65.46
61537;BME280;48695;53.480;-6.300;2024-03-07T00:31:37;101339.16;;;10.69;65.50
61537;BME280;48695;53.480;-6.300;2024-03-07T00:34:02;101361.75;;;10.76;65.51
61537;BME280;48695;53.480;-6.300;2024-03-07T00:36:27;101358.25;;;10.74;66.01
61537;BME280;48695;53.480;-6.300;2024-03-07T00:38:53;101362.66;;;10.72;65.40
61537;BME280;48695;53.480;-6.300;2024-03-07T00:41:19;101360.06;;;10.69;66.19
61537;BME280;48695;53.480;-6.300;2024-03-07T00:43:45;101348.06;;;10.55;65.88
61537;BME280;48695;53.480;-6.300;2024-03-07T00:46:11;101360.16;;;10.62;66.38
61537;BME280;48695;53.480;-6.300;2024-03-07T00:48:37;101362.78;;;10.61;66.00
61537;BME280;48695;53.480;-6.300;2024-03-07T00:51:03;101360.22;;;10.59;66.34
61537;BME280;48695;53.480;-6.300;2024-03-07T00:53:29;101365.44;;;10.59;66.15
61537;BME280;48695;53.480;-6.300;2024-03-07T00:55:55;101338.59;;;10.47;66.51
61537;BME280;48695;53.480;-6.300;2024-03-07T00:58:20;101355.00;;;10.56;66.33
61537;BME280;48695;53.480;-6.300;2024-03-07T01:00:45;101352.41;;;10.56;66.43
61537;BME280;48695;53.480;-6.300;2024-03-07T01:03:11;101349.78;;;10.56;66.54
61537;BME280;48695;53.480;-6.300;2024-03-07T01:05:38;101346.25;;;10.60;66.15
61537;BME280;48695;53.480;-6.300;2024-03-07T01:08:04;101346.34;;;10.54;65.98
61537;BME280;48695;53.480;-6.300;2024-03-07T01:10:30;101342.84;;;10.55;65.92
61537;BME280;48695;53.480;-6.300;2024-03-07T01:12:56;101353.28;;;10.55;66.36
61537;BME280;48695;53.480;-6.300;2024-03-07T01:15:26;101346.34;;;10.54;66.44
61537;BME280;48695;53.480;-6.300;2024-03-07T01:17:52;101345.44;;;10.54;66.21
61537;BME280;48695;53.480;-6.300;2024-03-07T01:20:17;101357.66;;;10.55;66.10
61537;BME280;48695;53.480;-6.300;2024-03-07T01:22:42;101351.56;;;10.54;66.24
61537;BME280;48695;53.480;-6.300;2024-03-07T01:25:08;101355.03;;;10.53;65.86
61537;BME280;48695;53.480;-6.300;2024-03-07T01:27:33;101363.75;;;10.52;65.83
61537;BME280;48695;53.480;-6.300;2024-03-07T01:29:59;101343.00;;;10.42;66.16
61537;BME280;48695;53.480;-6.300;2024-03-07T01:32:24;101349.94;;;10.44;66.01
61537;BME280;48695;53.480;-6.300;2024-03-07T01:34:50;101353.38;;;10.49;65.66
61537;BME280;48695;53.480;-6.300;2024-03-07T01:37:15;101346.41;;;10.48;65.26
61537;BME280;48695;53.480;-6.300;2024-03-07T01:39:40;101353.41;;;10.46;65.24
61537;BME280;48695;53.480;-6.300;2024-03-07T01:42:06;101338.66;;;10.39;65.17
61537;BME280;48695;53.480;-6.300;2024-03-07T01:44:33;101341.31;;;10.36;65.60
61537;BME280;48695;53.480;-6.300;2024-03-07T01:46:59;101345.59;;;10.43;65.37
61537;BME280;48695;53.480;-6.300;2024-03-07T01:49:29;101349.94;;;10.44;65.28
61537;BME280;48695;53.480;-6.300;2024-03-07T01:51:56;101334.38;;;10.35;65.69
61537;BME280;48695;53.480;-6.300;2024-03-07T01:54:22;101329.19;;;10.32;65.75
61537;BME280;48695;53.480;-6.300;2024-03-07T01:56:48;101343.03;;;10.40;66.23
61537;BME280;48695;53.480;-6.300;2024-03-07T01:59:15;101342.28;;;10.27;65.84
61537;BME280;48695;53.480;-6.300;2024-03-07T02:01:40;101345.63;;;10.38;65.92
61537;BME280;48695;53.480;-6.300;2024-03-07T02:04:06;101349.13;;;10.37;65.81
61537;BME280;48695;53.480;-6.300;2024-03-07T02:06:32;101349.13;;;10.37;65.61
61537;BME280;48695;53.480;-6.300;2024-03-07T02:08:58;101336.94;;;10.38;65.68
61537;BME280;48695;53.480;-6.300;2024-03-07T02:11:24;101343.06;;;10.35;65.90
61537;BME280;48695;53.480;-6.300;2024-03-07T02:13:49;101330.97;;;10.27;65.65
61537;BME280;48695;53.480;-6.300;2024-03-07T02:16:15;101338.75;;;10.34;65.68
61537;BME280;48695;53.480;-6.300;2024-03-07T02:18:40;101342.22;;;10.35;66.04
61537;BME280;48695;53.480;-6.300;2024-03-07T02:21:07;101346.56;;;10.36;65.55
61537;BME280;48695;53.480;-6.300;2024-03-07T02:23:34;101340.47;;;10.35;65.85
61537;BME280;48695;53.480;-6.300;2024-03-07T02:25:59;101339.59;;;10.35;65.36
61537;BME280;48695;53.480;-6.300;2024-03-07T02:28:25;101341.31;;;10.36;65.80
61537;BME280;48695;53.480;-6.300;2024-03-07T02:30:50;101347.41;;;10.36;65.85
61537;BME280;48695;53.480;-6.300;2024-03-07T02:33:16;101337.84;;;10.37;65.70
61537;BME280;48695;53.480;-6.300;2024-03-07T02:35:41;101346.56;;;10.36;65.60
61537;BME280;48695;53.480;-6.300;2024-03-07T02:38:07;101337.84;;;10.37;66.10
61537;BME280;48695;53.480;-6.300;2024-03-07T02:40:33;101344.78;;;10.38;65.82
61537;BME280;48695;53.480;-6.300;2024-03-07T02:42:59;101327.50;;;10.29;66.15
61537;BME280;48695;53.480;-6.300;2024-03-07T02:45:25;101344.81;;;10.35;66.14
61537;BME280;48695;53.480;-6.300;2024-03-07T02:47:51;101347.38;;;10.39;65.87
61537;BME280;48695;53.480;-6.300;2024-03-07T02:50:17;101316.25;;;10.20;65.58
61537;BME280;48695;53.480;-6.300;2024-03-07T02:52:42;101342.16;;;10.39;66.13
61537;BME280;48695;53.480;-6.300;2024-03-07T02:55:08;101341.28;;;10.39;65.53
61537;BME280;48695;53.480;-6.300;2024-03-07T02:57:36;101343.03;;;10.40;65.64
61537;BME280;48695;53.480;-6.300;2024-03-07T03:00:02;101341.25;;;10.42;65.77
61537;BME280;48695;53.480;-6.300;2024-03-07T03:02:28;101307.50;;;10.22;65.66
61537;BME280;48695;53.480;-6.300;2024-03-07T03:04:53;101343.88;;;10.42;65.62
61537;BME280;48695;53.480;-6.300;2024-03-07T03:07:19;101345.59;;;10.43;66.01
61537;BME280;48695;53.480;-6.300;2024-03-07T03:09:45;101351.66;;;10.45;65.84
61537;BME280;48695;53.480;-6.300;2024-03-07T03:12:11;101339.44;;;10.47;65.92
61537;BME280;48695;53.480;-6.300;2024-03-07T03:14:36;101336.81;;;10.49;65.55
61537;BME280;48695;53.480;-6.300;2024-03-07T03:17:02;101340.31;;;10.49;65.97
61537;BME280;48695;53.480;-6.300;2024-03-07T03:19:28;101339.41;;;10.49;65.99
61537;BME280;48695;53.480;-6.300;2024-03-07T03:21:53;101329.09;;;10.41;65.96
61537;BME280;48695;53.480;-6.300;2024-03-07T03:24:21;101329.84;;;10.51;65.74
61537;BME280;48695;53.480;-6.300;2024-03-07T03:26:46;101325.50;;;10.48;65.88
61537;BME280;48695;53.480;-6.300;2024-03-07T03:29:11;101333.34;;;10.50;66.18
61537;BME280;48695;53.480;-6.300;2024-03-07T03:31:39;101308.22;;;10.38;66.35
61537;BME280;48695;53.480;-6.300;2024-03-07T03:34:04;101328.97;;;10.49;66.13
61537;BME280;48695;53.480;-6.300;2024-03-07T03:36:30;101335.94;;;10.48;66.15
61537;BME280;48695;53.480;-6.300;2024-03-07T03:38:56;101333.38;;;10.47;66.15
61537;BME280;48695;53.480;-6.300;2024-03-07T03:41:22;101340.38;;;10.45;66.60
61537;BME280;48695;53.480;-6.300;2024-03-07T03:43:48;101326.44;;;10.44;66.86
61537;BME280;48695;53.480;-6.300;2024-03-07T03:46:13;101325.59;;;10.42;66.80
61537;BME280;48695;53.480;-6.300;2024-03-07T03:48:40;101323.88;;;10.41;67.23
61537;BME280;48695;53.480;-6.300;2024-03-07T03:51:09;101320.38;;;10.42;67.11
61537;BME280;48695;53.480;-6.300;2024-03-07T03:53:35;101291.00;;;10.22;67.16
61537;BME280;48695;53.480;-6.300;2024-03-07T03:56:01;101316.97;;;10.35;67.06
61537;BME280;48695;53.480;-6.300;2024-03-07T03:58:30;101317.84;;;10.33;66.76
61537;BME280;48695;53.480;-6.300;2024-03-07T04:00:55;101324.00;;;10.30;67.16
61537;BME280;48695;53.480;-6.300;2024-03-07T04:03:21;101318.75;;;10.29;67.21
61537;BME280;48695;53.480;-6.300;2024-03-07T04:05:46;101319.69;;;10.26;67.43
61537;BME280;48695;53.480;-6.300;2024-03-07T04:08:12;101324.03;;;10.23;67.19
61537;BME280;48695;53.480;-6.300;2024-03-07T04:10:38;101339.69;;;10.23;67.02
61537;BME280;48695;53.480;-6.300;2024-03-07T04:13:04;101335.38;;;10.20;66.97
61537;BME280;48695;53.480;-6.300;2024-03-07T04:15:29;101339.75;;;10.20;66.99
61537;BME280;48695;53.480;-6.300;2024-03-07T04:17:57;101341.50;;;10.18;67.42
61537;BME280;48695;53.480;-6.300;2024-03-07T04:20:22;101338.13;;;10.09;67.10
61537;BME280;48695;53.480;-6.300;2024-03-07T04:22:47;101307.84;;;9.92;67.36
61537;BME280;48695;53.480;-6.300;2024-03-07T04:25:16;101345.00;;;10.13;66.91
61537;BME280;48695;53.480;-6.300;2024-03-07T04:27:42;101345.06;;;10.10;66.86
61537;BME280;48695;53.480;-6.300;2024-03-07T04:30:08;101338.13;;;10.09;67.06
61537;BME280;48695;53.480;-6.300;2024-03-07T04:32:36;101341.59;;;10.08;66.81
61537;BME280;48695;53.480;-6.300;2024-03-07T04:35:03;101317.41;;;9.91;66.79
61537;BME280;48695;53.480;-6.300;2024-03-07T04:37:29;101333.00;;;9.97;66.97
61537;BME280;48695;53.480;-6.300;2024-03-07T04:39:54;101331.22;;;10.02;67.35
61537;BME280;48695;53.480;-6.300;2024-03-07T04:42:20;101337.28;;;10.03;66.66
61537;BME280;48695;53.480;-6.300;2024-03-07T04:44:46;101334.72;;;10.01;67.32
61537;BME280;48695;53.480;-6.300;2024-03-07T04:47:11;101339.94;;;10.01;66.75
61537;BME280;48695;53.480;-6.300;2024-03-07T04:49:37;101342.56;;;10.00;67.02
61537;BME280;48695;53.480;-6.300;2024-03-07T04:52:03;101339.94;;;9.98;66.69
61537;BME280;48695;53.480;-6.300;2024-03-07T04:54:30;101355.59;;;9.98;66.62
61537;BME280;48695;53.480;-6.300;2024-03-07T04:56:57;101347.81;;;9.95;67.13
61537;BME280;48695;53.480;-6.300;2024-03-07T04:59:22;101341.72;;;9.93;66.82
61537;BME280;48695;53.480;-6.300;2024-03-07T05:01:49;101352.16;;;9.93;66.71
61537;BME280;48695;53.480;-6.300;2024-03-07T05:04:17;101357.44;;;9.90;66.47
61537;BME280;48695;53.480;-6.300;2024-03-07T05:06:43;101326.28;;;9.75;66.45
61537;BME280;48695;53.480;-6.300;2024-03-07T05:09:10;101361.78;;;9.90;66.64
61537;BME280;48695;53.480;-6.300;2024-03-07T05:11:46;101352.25;;;9.88;66.96
61537;BME280;48695;53.480;-6.300;2024-03-07T05:14:12;101353.97;;;9.88;66.82
61537;BME280;48695;53.480;-6.300;2024-03-07T05:16:37;101360.94;;;9.89;66.79
61537;BME280;48695;53.480;-6.300;2024-03-07T05:19:03;101364.41;;;9.90;67.00
61537;BME280;48695;53.480;-6.300;2024-03-07T05:21:30;101374.81;;;9.91;66.80
61537;BME280;48695;53.480;-6.300;2024-03-07T05:24:03;101374.81;;;9.91;67.10
61537;BME280;48695;53.480;-6.300;2024-03-07T05:26:29;101357.53;;;9.78;67.08
61537;BME280;48695;53.480;-6.300;2024-03-07T05:29:06;101381.75;;;9.92;67.41
61537;BME280;48695;53.480;-6.300;2024-03-07T05:31:36;101352.34;;;9.76;67.11
61537;BME280;48695;53.480;-6.300;2024-03-07T05:34:03;101380.94;;;9.88;67.20
61537;BME280;48695;53.480;-6.300;2024-03-07T05:36:32;101364.47;;;9.82;66.99
61537;BME280;48695;53.480;-6.300;2024-03-07T05:38:58;101390.44;;;9.94;66.98
61537;BME280;48695;53.480;-6.300;2024-03-07T05:41:24;101395.66;;;9.96;67.29
61537;BME280;48695;53.480;-6.300;2024-03-07T05:43:53;101384.31;;;9.97;66.88
61537;BME280;48695;53.480;-6.300;2024-03-07T05:46:19;101393.88;;;9.99;67.28
61537;BME280;48695;53.480;-6.300;2024-03-07T05:48:45;101396.47;;;10.01;67.15
61537;BME280;48695;53.480;-6.300;2024-03-07T05:51:15;101389.53;;;10.00;66.81
61537;BME280;48695;53.480;-6.300;2024-03-07T05:53:40;101398.19;;;10.02;66.96
61537;BME280;48695;53.480;-6.300;2024-03-07T05:56:07;101398.19;;;10.05;66.77
61537;BME280;48695;53.480;-6.300;2024-03-07T05:58:33;101394.69;;;10.06;66.77
61537;BME280;48695;53.480;-6.300;2024-03-07T06:00:58;101398.16;;;10.06;67.21
61537;BME280;48695;53.480;-6.300;2024-03-07T06:03:24;101390.31;;;10.09;66.51
61537;BME280;48695;53.480;-6.300;2024-03-07T06:05:50;101399.00;;;10.10;66.63
61537;BME280;48695;53.480;-6.300;2024-03-07T06:08:17;101388.53;;;10.11;66.77
61537;BME280;48695;53.480;-6.300;2024-03-07T06:10:44;101386.78;;;10.12;66.15
61537;BME280;48695;53.480;-6.300;2024-03-07T06:13:14;101391.13;;;10.14;66.55
61537;BME280;48695;53.480;-6.300;2024-03-07T06:15:43;101388.53;;;10.14;66.62
61537;BME280;48695;53.480;-6.300;2024-03-07T06:18:09;101393.72;;;10.14;66.63
61537;BME280;48695;53.480;-6.300;2024-03-07T06:20:36;101384.16;;;10.13;66.72
61537;BME280;48695;53.480;-6.300;2024-03-07T06:23:02;101384.16;;;10.15;66.42
61537;BME280;48695;53.480;-6.300;2024-03-07T06:25:31;101386.75;;;10.17;66.19
61537;BME280;48695;53.480;-6.300;2024-03-07T06:28:03;101386.75;;;10.17;66.22
61537;BME280;48695;53.480;-6.300;2024-03-07T06:30:38;101390.22;;;10.17;66.35
61537;BME280;48695;53.480;-6.300;2024-03-07T06:33:05;101375.56;;;10.05;66.21
61537;BME280;48695;53.480;-6.300;2024-03-07T06:35:30;101394.63;;;10.12;66.27
61537;BME280;48695;53.480;-6.300;2024-03-07T06:37:55;101379.03;;;10.06;66.02
61537;BME280;48695;53.480;-6.300;2024-03-07T06:40:21;101385.94;;;10.08;65.64
61537;BME280;48695;53.480;-6.300;2024-03-07T06:42:48;101394.66;;;10.07;65.84
61537;BME280;48695;53.480;-6.300;2024-03-07T06:45:13;101374.75;;;9.97;65.86
61537;BME280;48695;53.480;-6.300;2024-03-07T06:47:39;101391.25;;;9.98;65.48
61537;BME280;48695;53.480;-6.300;2024-03-07T06:50:04;101394.75;;;9.97;65.64
61537;BME280;48695;53.480;-6.300;2024-03-07T06:52:34;101383.53;;;9.87;65.48
61537;BME280;48695;53.480;-6.300;2024-03-07T06:54:59;101407.00;;;9.90;65.76
61537;BME280;48695;53.480;-6.300;2024-03-07T06:57:24;101368.06;;;9.69;65.94
61537;BME280;48695;53.480;-6.300;2024-03-07T06:59:50;101400.13;;;9.80;65.80
61537;BME280;48695;53.480;-6.300;2024-03-07T07:02:15;101404.47;;;9.78;65.75
61537;BME280;48695;53.480;-6.300;2024-03-07T07:04:41;101408.00;;;9.75;66.02
61537;BME280;48695;53.480;-6.300;2024-03-07T07:07:11;101379.44;;;9.58;66.34
61537;BME280;48695;53.480;-6.300;2024-03-07T07:09:38;101400.19;;;9.71;66.71
61537;BME280;48695;53.480;-6.300;2024-03-07T07:12:03;101401.09;;;9.70;67.03
61537;BME280;48695;53.480;-6.300;2024-03-07T07:14:29;101375.09;;;9.57;66.45
61537;BME280;48695;53.480;-6.300;2024-03-07T07:16:54;101390.66;;;9.67;66.49
61537;BME280;48695;53.480;-6.300;2024-03-07T07:19:21;101394.16;;;9.66;66.79
61537;BME280;48695;53.480;-6.300;2024-03-07T07:21:47;101398.50;;;9.65;66.92
61537;BME280;48695;53.480;-6.300;2024-03-07T07:24:14;101396.78;;;9.64;67.13
61537;BME280;48695;53.480;-6.300;2024-03-07T07:26:40;101396.78;;;9.64;66.82
61537;BME280;48695;53.480;-6.300;2024-03-07T07:29:06;101381.22;;;9.55;66.94
61537;BME280;48695;53.480;-6.300;2024-03-07T07:31:32;101399.38;;;9.66;67.36
61537;BME280;48695;53.480;-6.300;2024-03-07T07:33:57;101407.19;;;9.67;67.21
61537;BME280;48695;53.480;-6.300;2024-03-07T07:36:23;101369.91;;;9.54;67.44
61537;BME280;48695;53.480;-6.300;2024-03-07T07:38:48;101397.59;;;9.71;66.79
61537;BME280;48695;53.480;-6.300;2024-03-07T07:41:14;101409.75;;;9.72;67.17
61537;BME280;48695;53.480;-6.300;2024-03-07T07:43:40;101409.75;;;9.75;67.19
61537;BME280;48695;53.480;-6.300;2024-03-07T07:46:06;101399.31;;;9.75;67.14
61537;BME280;48695;53.480;-6.300;2024-03-07T07:48:31;101406.22;;;9.79;66.96
61537;BME280;48695;53.480;-6.300;2024-03-07T07:50:57;101402.75;;;9.80;67.25
61537;BME280;48695;53.480;-6.300;2024-03-07T07:53:23;101421.81;;;9.85;67.44
61537;BME280;48695;53.480;-6.300;2024-03-07T07:55:48;101407.91;;;9.86;66.86
61537;BME280;48695;53.480;-6.300;2024-03-07T07:58:14;101406.13;;;9.88;66.77
61537;BME280;48695;53.480;-6.300;2024-03-07T08:00:39;101408.75;;;9.90;66.70
61537;BME280;48695;53.480;-6.300;2024-03-07T08:03:08;101404.41;;;9.90;66.96
61537;BME280;48695;53.480;-6.300;2024-03-07T08:05:35;101403.50;;;9.93;66.85
61537;BME280;48695;53.480;-6.300;2024-03-07T08:08:03;101404.34;;;9.93;67.04
61537;BME280;48695;53.480;-6.300;2024-03-07T08:10:30;101413.03;;;9.97;67.08
61537;BME280;48695;53.480;-6.300;2024-03-07T08:13:00;101411.25;;;10.00;67.20
61537;BME280;48695;53.480;-6.300;2024-03-07T08:15:27;101412.16;;;9.99;66.83
61537;BME280;48695;53.480;-6.300;2024-03-07T08:17:56;101406.88;;;10.02;67.09
61537;BME280;48695;53.480;-6.300;2024-03-07T08:20:22;101415.59;;;10.04;66.75
61537;BME280;48695;53.480;-6.300;2024-03-07T08:22:49;101410.31;;;10.07;66.68
61537;BME280;48695;53.480;-6.300;2024-03-07T08:25:20;101395.53;;;10.09;66.58
61537;BME280;48695;53.480;-6.300;2024-03-07T08:27:47;101371.25;;;9.98;66.85
61537;BME280;48695;53.480;-6.300;2024-03-07T08:30:13;101393.75;;;10.11;66.53
61537;BME280;48695;53.480;-6.300;2024-03-07T08:32:43;101378.13;;;10.08;66.77
61537;BME280;48695;53.480;-6.300;2024-03-07T08:35:09;101386.75;;;10.17;66.90
61537;BME280;48695;53.480;-6.300;2024-03-07T08:37:55;101395.34;;;10.28;66.79
61537;BME280;48695;53.480;-6.300;2024-03-07T08:40:24;101399.72;;;10.27;66.36
61537;BME280;48695;53.480;-6.300;2024-03-07T08:42:51;101402.28;;;10.32;66.14
61537;BME280;48695;53.480;-6.300;2024-03-07T08:45:17;101391.03;;;10.27;65.88
61537;BME280;48695;53.480;-6.300;2024-03-07T08:47:48;101401.41;;;10.34;66.19
61537;BME280;48695;53.480;-6.300;2024-03-07T08:50:15;101393.50;;;10.39;66.05
61537;BME280;48695;53.480;-6.300;2024-03-07T08:52:43;101399.63;;;10.36;66.12
61537;BME280;48695;53.480;-6.300;2024-03-07T08:55:11;101390.88;;;10.41;65.49
61537;BME280;48695;53.480;-6.300;2024-03-07T08:57:38;101396.09;;;10.41;65.73
61537;BME280;48695;53.480;-6.300;2024-03-07T09:00:04;101362.34;;;10.21;65.86
61537;BME280;48695;53.480;-6.300;2024-03-07T09:02:37;101394.28;;;10.47;66.27
61537;BME280;48695;53.480;-6.300;2024-03-07T09:05:03;101400.38;;;10.49;65.65
61537;BME280;48695;53.480;-6.300;2024-03-07T09:07:29;101406.41;;;10.54;65.77
61537;BME280;48695;53.480;-6.300;2024-03-07T09:09:55;101362.22;;;10.36;65.48
61537;BME280;48695;53.480;-6.300;2024-03-07T09:12:20;101401.09;;;10.62;66.01
61537;BME280;48695;53.480;-6.300;2024-03-07T09:14:46;101401.91;;;10.65;65.70
61537;BME280;48695;53.480;-6.300;2024-03-07T09:17:12;101388.81;;;10.69;65.52
61537;BME280;48695;53.480;-6.300;2024-03-07T09:19:38;101398.31;;;10.76;65.65
61537;BME280;48695;53.480;-6.300;2024-03-07T09:22:03;101387.06;;;10.68;65.30
61537;BME280;48695;53.480;-6.300;2024-03-07T09:24:30;101400.00;;;10.80;65.32
61537;BME280;48695;53.480;-6.300;2024-03-07T09:26:56;101403.47;;;10.82;64.94
61537;BME280;48695;53.480;-6.300;2024-03-07T09:29:22;101393.91;;;10.78;65.16
61537;BME280;48695;53.480;-6.300;2024-03-07T09:31:51;101398.13;;;10.89;64.98
61537;BME280;48695;53.480;-6.300;2024-03-07T09:34:18;101411.19;;;10.91;64.55
61537;BME280;48695;53.480;-6.300;2024-03-07T09:36:44;101398.16;;;10.88;64.96
61537;BME280;48695;53.480;-6.300;2024-03-07T09:39:09;101401.47;;;10.99;64.70
61537;BME280;48695;53.480;-6.300;2024-03-07T09:41:37;101397.16;;;10.98;64.69
61537;BME280;48695;53.480;-6.300;2024-03-07T09:44:05;101427.50;;;11.08;64.69
61537;BME280;48695;53.480;-6.300;2024-03-07T09:46:31;101400.50;;;11.08;63.64
61537;BME280;48695;53.480;-6.300;2024-03-07T09:48:57;101420.47;;;11.13;63.79
61537;BME280;48695;53.480;-6.300;2024-03-07T09:51:24;101421.25;;;11.18;64.79
61537;BME280;48695;53.480;-6.300;2024-03-07T09:53:51;101406.34;;;11.27;63.46
61537;BME280;48695;53.480;-6.300;2024-03-07T09:56:20;101413.19;;;11.34;63.69
61537;BME280;48695;53.480;-6.300;2024-03-07T09:58:49;101400.88;;;11.42;63.81
61537;BME280;48695;53.480;-6.300;2024-03-07T10:01:15;101408.69;;;11.43;63.31
61537;BME280;48695;53.480;-6.300;2024-03-07T10:03:43;101414.69;;;11.50;63.65
61537;BME280;48695;53.480;-6.300;2024-03-07T10:06:10;101416.34;;;11.57;63.46
61537;BME280;48695;53.480;-6.300;2024-03-07T10:08:36;101398.09;;;11.53;63.28
61537;BME280;48695;53.480;-6.300;2024-03-07T10:11:02;101393.63;;;11.59;62.77
61537;BME280;48695;53.480;-6.300;2024-03-07T10:13:27;101411.75;;;11.73;62.53
61537;BME280;48695;53.480;-6.300;2024-03-07T10:15:56;101421.38;;;11.71;62.25
61537;BME280;48695;53.480;-6.300;2024-03-07T10:18:25;101416.16;;;11.69;62.20
61537;BME280;48695;53.480;-6.300;2024-03-07T10:20:55;101413.50;;;11.73;62.41
61537;BME280;48695;53.480;-6.300;2024-03-07T10:23:21;101414.38;;;11.72;62.09
61537;BME280;48695;53.480;-6.300;2024-03-07T10:25:47;101414.38;;;11.72;62.37
61537;BME280;48695;53.480;-6.300;2024-03-07T10:28:13;101416.97;;;11.73;62.68
61537;BME280;48695;53.480;-6.300;2024-03-07T10:30:43;101406.47;;;11.75;63.11
61537;BME280;48695;53.480;-6.300;2024-03-07T10:33:12;101403.81;;;11.78;62.16
61537;BME280;48695;53.480;-6.300;2024-03-07T10:35:38;101398.50;;;11.81;62.21
61537;BME280;48695;53.480;-6.300;2024-03-07T10:38:03;101405.53;;;11.82;62.22
61537;BME280;48695;53.480;-6.300;2024-03-07T10:40:32;101404.63;;;11.81;62.19
61537;BME280;48695;53.480;-6.300;2024-03-07T10:42:58;101403.75;;;11.81;62.06
61537;BME280;48695;53.480;-6.300;2024-03-07T10:45:28;101410.72;;;11.83;62.34
61537;BME280;48695;53.480;-6.300;2024-03-07T10:47:56;101403.72;;;11.87;61.91
61537;BME280;48695;53.480;-6.300;2024-03-07T10:53:31;101396.34;;;12.09;62.24
61537;BME280;48695;53.480;-6.300;2024-03-07T11:01:31;101392.91;;;12.52;61.23
61537;BME280;48695;53.480;-6.300;2024-03-07T11:04:00;101394.44;;;12.63;60.83
61537;BME280;48695;53.480;-6.300;2024-03-07T11:06:29;101384.59;;;12.75;60.15
61537;BME280;48695;53.480;-6.300;2024-03-07T11:08:56;101393.94;;;12.86;59.37
61537;BME280;48695;53.480;-6.300;2024-03-07T11:11:23;101386.94;;;12.87;59.24
61537;BME280;48695;53.480;-6.300;2024-03-07T11:13:50;101384.13;;;12.96;58.70
61537;BME280;48695;53.480;-6.300;2024-03-07T11:16:19;101392.75;;;13.01;60.04
61537;BME280;48695;53.480;-6.300;2024-03-07T11:21:50;101387.97;;;13.21;58.97
61537;BME280;48695;53.480;-6.300;2024-03-07T11:24:28;101391.97;;;13.38;60.29
61537;BME280;48695;53.480;-6.300;2024-03-07T11:26:55;101386.59;;;13.44;59.16
61537;BME280;48695;53.480;-6.300;2024-03-07T11:29:47;101387.75;;;13.68;61.69
61537;BME280;48695;53.480;-6.300;2024-03-07T11:32:14;101383.72;;;13.89;59.31
61537;BME280;48695;53.480;-6.300;2024-03-07T11:34:44;101387.13;;;14.26;59.53
61537;BME280;48695;53.480;-6.300;2024-03-07T11:37:38;101377.91;;;14.74;61.67
61537;BME280;48695;53.480;-6.300;2024-03-07T11:40:10;101378.69;;;15.07;56.92
61537;BME280;48695;53.480;-6.300;2024-03-07T11:42:44;101372.72;;;15.30;55.55
61537;BME280;48695;53.480;-6.300;2024-03-07T11:45:12;101378.53;;;15.40;55.25
61537;BME280;48695;53.480;-6.300;2024-03-07T11:47:45;101386.16;;;15.49;55.13
61537;BME280;48695;53.480;-6.300;2024-03-07T11:50:11;101350.72;;;15.32;53.29
61537;BME280;48695;53.480;-6.300;2024-03-07T11:52:37;101355.69;;;15.42;54.64
61537;BME280;48695;53.480;-6.300;2024-03-07T11:55:07;101356.41;;;15.47;54.38
61537;BME280;48695;53.480;-6.300;2024-03-07T11:57:33;101357.69;;;15.60;54.21
61537;BME280;48695;53.480;-6.300;2024-03-07T11:59:59;101355.78;;;15.67;53.07
61537;BME280;48695;53.480;-6.300;2024-03-07T12:02:33;101361.84;;;15.69;53.19
61537;BME280;48695;53.480;-6.300;2024-03-07T12:04:59;101362.03;;;15.61;52.84
61537;BME280;48695;53.480;-6.300;2024-03-07T12:07:25;101374.47;;;15.57;53.43
61537;BME280;48695;53.480;-6.300;2024-03-07T12:09:52;101342.19;;;15.51;53.08
61537;BME280;48695;53.480;-6.300;2024-03-07T12:12:21;101348.81;;;15.64;52.91
61537;BME280;48695;53.480;-6.300;2024-03-07T12:14:47;101356.56;;;15.69;52.16
61537;BME280;48695;53.480;-6.300;2024-03-07T12:17:16;101362.50;;;15.75;53.64
61537;BME280;48695;53.480;-6.300;2024-03-07T12:19:41;101356.13;;;15.82;51.98
61537;BME280;48695;53.480;-6.300;2024-03-07T12:22:11;101353.69;;;16.01;53.64
61537;BME280;48695;53.480;-6.300;2024-03-07T12:24:48;101356.38;;;16.00;51.61
61537;BME280;48695;53.480;-6.300;2024-03-07T12:27:24;101352.03;;;15.99;50.68
61537;BME280;48695;53.480;-6.300;2024-03-07T12:29:50;101338.88;;;15.99;51.07
61537;BME280;48695;53.480;-6.300;2024-03-07T12:32:17;101353.91;;;16.20;56.48
61537;BME280;48695;53.480;-6.300;2024-03-07T12:34:43;101349.56;;;16.19;50.66
61537;BME280;48695;53.480;-6.300;2024-03-07T12:37:12;101343.28;;;16.23;50.81
61537;BME280;48695;53.480;-6.300;2024-03-07T12:39:41;101337.00;;;16.26;50.32
61537;BME280;48695;53.480;-6.300;2024-03-07T12:42:27;101343.81;;;16.33;51.75
61537;BME280;48695;53.480;-6.300;2024-03-07T12:44:53;101325.75;;;16.46;50.35
61537;BME280;48695;53.480;-6.300;2024-03-07T12:47:19;101319.88;;;16.63;51.22
61537;BME280;48695;53.480;-6.300;2024-03-07T12:49:45;101320.59;;;16.90;50.36
61537;BME280;48695;53.480;-6.300;2024-03-07T12:52:11;101323.75;;;17.21;49.16
61537;BME280;48695;53.480;-6.300;2024-03-07T12:54:43;101293.41;;;17.31;48.04